sensor_id;sensor_type;location;lat;lon;timestamp;pressure;altitude;pressure_sealevel;temperature;humidity
71996;BME280;59862;47.732;7.346;2023-10-13T00:02:02;98176.20;;;17.60;100.00
71996;BME280;59862;47.732;7.346;2023-10-13T00:04:33;98226.24;;;17.88;100.00
71996;BME280;59862;47.732;7.346;2023-10-13T00:07:03;98230.40;;;17.91;100.00
71996;BME280;59862;47.732;7.346;2023-10-13T00:09:32;98227.75;;;17.84;100.00
71996;BME280;59862;47.732;7.346;2023-10-13T00:12:02;98226.05;;;17.74;100.00
71996;BME280;59862;47.732;7.346;2023-10-13T00:14:31;98223.91;;;17.67;100.00
71996;BME280;59862;47.732;7.346;2023-10-13T00:17:03;98228.19;;;17.57;100.00
71996;BME280;59862;47.732;7.346;2023-10-13T00:19:38;98220.94;;;17.51;100.00
71996;BME280;59862;47.732;7.346;2023-10-13T00:22:08;98212.22;;;17.42;100.00
71996;BME280;59862;47.732;7.346;2023-10-13T00:24:42;98215.73;;;17.33;100.00
71996;BME280;59862;47.732;7.346;2023-10-13T00:27:15;98209.00;;;17.27;100.00
71996;BME280;59862;47.732;7.346;2023-10-13T00:29:48;98219.20;;;17.16;100.00
71996;BME280;59862;47.732;7.346;2023-10-13T00:32:17;98218.16;;;17.17;100.00
71996;BME280;59862;47.732;7.346;2023-10-13T00:34:46;98213.03;;;17.18;100.00
71996;BME280;59862;47.732;7.346;2023-10-13T00:37:13;98214.70;;;17.19;100.00
71996;BME280;59862;47.732;7.346;2023-10-13T00:39:44;98206.25;;;17.18;100.00
71996;BME280;59862;47.732;7.346;2023-10-13T00:42:13;98204.33;;;17.25;100.00
71996;BME280;59862;47.732;7.346;2023-10-13T00:44:48;98208.48;;;17.27;100.00
71996;BME280;59862;47.732;7.346;2023-10-13T00:47:17;98210.25;;;17.40;100.00
71996;BME280;59862;47.732;7.346;2023-10-13T00:50:06;98202.58;;;17.46;100.00
71996;BME280;59862;47.732;7.346;2023-10-13T00:52:37;98206.45;;;17.48;100.00
71996;BME280;59862;47.732;7.346;2023-10-13T00:55:07;98206.45;;;17.48;100.00
71996;BME280;59862;47.732;7.346;2023-10-13T00:57:36;98207.40;;;17.44;100.00
71996;BME280;59862;47.732;7.346;2023-10-13T01:00:08;98202.30;;;17.45;100.00
71996;BME280;59862;47.732;7.346;2023-10-13T01:02:42;98203.94;;;17.46;100.00
71996;BME280;59862;47.732;7.346;2023-10-13T01:05:11;98208.06;;;17.39;100.00
71996;BME280;59862;47.732;7.346;2023-10-13T01:07:40;98202.97;;;17.25;100.00
71996;BME280;59862;47.732;7.346;2023-10-13T01:10:11;98202.46;;;17.10;100.00
71996;BME280;59862;47.732;7.346;2023-10-13T01:12:40;98191.84;;;16.93;100.00
71996;BME280;59862;47.732;7.346;2023-10-13T01:15:09;98196.14;;;16.91;100.00
71996;BME280;59862;47.732;7.346;2023-10-13T01:17:37;98190.62;;;16.89;100.00
71996;BME280;59862;47.732;7.346;2023-10-13T01:20:05;98194.83;;;16.85;100.00
71996;BME280;59862;47.732;7.346;2023-10-13T01:22:34;98198.89;;;16.85;100.00
71996;BME280;59862;47.732;7.346;2023-10-13T01:25:02;98196.33;;;16.90;100.00
71996;BME280;59862;47.732;7.346;2023-10-13T01:27:38;98190.26;;;16.94;100.00
71996;BME280;59862;47.732;7.346;2023-10-13T01:30:07;98195.77;;;16.97;100.00
71996;BME280;59862;47.732;7.346;2023-10-13T01:32:39;98188.01;;;16.91;100.00
71996;BME280;59862;47.732;7.346;2023-10-13T01:35:08;98188.52;;;16.91;100.00
71996;BME280;59862;47.732;7.346;2023-10-13T01:37:36;98181.88;;;16.87;100.00
71996;BME280;59862;47.732;7.346;2023-10-13T01:40:04;98178.98;;;16.82;100.00
71996;BME280;59862;47.732;7.346;2023-10-13T01:42:32;98182.34;;;16.77;100.00
71996;BME280;59862;47.732;7.346;2023-10-13T01:45:01;98175.89;;;16.78;100.00
71996;BME280;59862;47.732;7.346;2023-10-13T01:47:31;98176.70;;;16.79;100.00
71996;BME280;59862;47.732;7.346;2023-10-13T01:50:00;98166.05;;;16.84;100.00
71996;BME280;59862;47.732;7.346;2023-10-13T01:52:29;98169.23;;;16.90;100.00
71996;BME280;59862;47.732;7.346;2023-10-13T01:54:56;98164.41;;;16.92;100.00
71996;BME280;59862;47.732;7.346;2023-10-13T01:57:25;98160.44;;;16.94;100.00
71996;BME280;59862;47.732;7.346;2023-10-13T01:59:54;98156.37;;;16.94;100.00
71996;BME280;59862;47.732;7.346;2023-10-13T02:02:22;98157.91;;;16.99;100.00
71996;BME280;59862;47.732;7.346;2023-10-13T02:04:58;98157.77;;;17.03;100.00
71996;BME280;59862;47.732;7.346;2023-10-13T02:07:29;98153.15;;;16.95;100.00
71996;BME280;59862;47.732;7.346;2023-10-13T02:09:57;98155.34;;;16.80;100.00
71996;BME280;59862;47.732;7.346;2023-10-13T02:12:25;98151.66;;;16.67;100.00
71996;BME280;59862;47.732;7.346;2023-10-13T02:14:57;98147.05;;;16.52;100.00
71996;BME280;59862;47.732;7.346;2023-10-13T02:17:26;98142.58;;;16.49;100.00
71996;BME280;59862;47.732;7.346;2023-10-13T02:19:53;98144.09;;;16.38;100.00
71996;BME280;59862;47.732;7.346;2023-10-13T02:22:21;98140.36;;;16.39;100.00
71996;BME280;59862;47.732;7.346;2023-10-13T02:24:53;98140.97;;;16.41;100.00
71996;BME280;59862;47.732;7.346;2023-10-13T02:27:22;98144.09;;;16.38;100.00
71996;BME280;59862;47.732;7.346;2023-10-13T02:29:50;98142.03;;;16.34;100.00
71996;BME280;59862;47.732;7.346;2023-10-13T02:32:19;98136.84;;;16.32;100.00
71996;BME280;59862;47.732;7.346;2023-10-13T02:34:47;98132.36;;;16.29;100.00
71996;BME280;59862;47.732;7.346;2023-10-13T02:37:14;98136.84;;;16.32;100.00
71996;BME280;59862;47.732;7.346;2023-10-13T02:39:43;98132.88;;;16.35;100.00
71996;BME280;59862;47.732;7.346;2023-10-13T02:42:11;98126.30;;;16.33;100.00
71996;BME280;59862;47.732;7.346;2023-10-13T02:44:40;98125.14;;;16.38;100.00
71996;BME280;59862;47.732;7.346;2023-10-13T02:47:09;98121.55;;;16.44;100.00
71996;BME280;59862;47.732;7.346;2023-10-13T02:49:38;98115.48;;;16.55;100.00
71996;BME280;59862;47.732;7.346;2023-10-13T02:52:07;98108.53;;;16.66;100.00
71996;BME280;59862;47.732;7.346;2023-10-13T02:54:36;98105.77;;;16.73;100.00
71996;BME280;59862;47.732;7.346;2023-10-13T02:57:08;98113.76;;;16.77;100.00
71996;BME280;59862;47.732;7.346;2023-10-13T02:59:35;98110.34;;;16.88;100.00
71996;BME280;59862;47.732;7.346;2023-10-13T03:02:04;98115.77;;;16.88;100.00
71996;BME280;59862;47.732;7.346;2023-10-13T03:04:48;98108.05;;;16.76;100.00
71996;BME280;59862;47.732;7.346;2023-10-13T03:07:16;98101.09;;;16.71;100.00
71996;BME280;59862;47.732;7.346;2023-10-13T03:09:50;98099.00;;;16.73;100.00
71996;BME280;59862;47.732;7.346;2023-10-13T03:12:19;98102.17;;;16.79;100.00
71996;BME280;59862;47.732;7.346;2023-10-13T03:14:48;98100.17;;;16.67;100.00
71996;BME280;59862;47.732;7.346;2023-10-13T03:17:15;98089.97;;;16.54;100.00
71996;BME280;59862;47.732;7.346;2023-10-13T03:19:46;98093.72;;;16.46;100.00
71996;BME280;59862;47.732;7.346;2023-10-13T03:22:15;98083.50;;;16.48;100.00
71996;BME280;59862;47.732;7.346;2023-10-13T03:24:44;98083.34;;;16.43;100.00
71996;BME280;59862;47.732;7.346;2023-10-13T03:27:15;98081.75;;;16.29;100.00
71996;BME280;59862;47.732;7.346;2023-10-13T03:29:45;98082.15;;;16.17;100.00
71996;BME280;59862;47.732;7.346;2023-10-13T03:32:15;98085.05;;;16.00;100.00
71996;BME280;59862;47.732;7.346;2023-10-13T03:34:44;98084.02;;;15.94;100.00
71996;BME280;59862;47.732;7.346;2023-10-13T03:37:22;98084.70;;;16.06;100.00
71996;BME280;59862;47.732;7.346;2023-10-13T03:39:51;98087.82;;;16.03;100.00
71996;BME280;59862;47.732;7.346;2023-10-13T03:42:19;98088.88;;;16.02;100.00
71996;BME280;59862;47.732;7.346;2023-10-13T03:44:48;98080.16;;;16.00;100.00
71996;BME280;59862;47.732;7.346;2023-10-13T03:47:16;98077.47;;;15.93;100.00
71996;BME280;59862;47.732;7.346;2023-10-13T03:49:47;98086.63;;;15.92;100.00
71996;BME280;59862;47.732;7.346;2023-10-13T03:52:16;98079.86;;;15.92;100.00
71996;BME280;59862;47.732;7.346;2023-10-13T03:54:46;98082.34;;;16.00;100.00
71996;BME280;59862;47.732;7.346;2023-10-13T03:57:14;98082.53;;;15.99;100.00
71996;BME280;59862;47.732;7.346;2023-10-13T03:59:43;98078.76;;;15.84;100.00
71996;BME280;59862;47.732;7.346;2023-10-13T04:02:12;98078.17;;;15.75;100.00
71996;BME280;59862;47.732;7.346;2023-10-13T04:04:41;98074.84;;;15.73;100.00
71996;BME280;59862;47.732;7.346;2023-10-13T04:07:10;98071.06;;;15.59;100.00
71996;BME280;59862;47.732;7.346;2023-10-13T04:09:40;98065.58;;;15.50;100.00
71996;BME280;59862;47.732;7.346;2023-10-13T04:12:15;98063.37;;;15.43;100.00
71996;BME280;59862;47.732;7.346;2023-10-13T04:14:47;98065.28;;;15.71;100.00
71996;BME280;59862;47.732;7.346;2023-10-13T04:17:34;98056.86;;;15.92;100.00
71996;BME280;59862;47.732;7.346;2023-10-13T04:20:04;98054.79;;;16.10;100.00
71996;BME280;59862;47.732;7.346;2023-10-13T04:25:20;98057.69;;;16.15;100.00
71996;BME280;59862;47.732;7.346;2023-10-13T04:28:07;98055.89;;;16.02;100.00
71996;BME280;59862;47.732;7.346;2023-10-13T04:30:44;98048.73;;;15.92;100.00
71996;BME280;59862;47.732;7.346;2023-10-13T04:33:16;98046.73;;;15.97;100.00
71996;BME280;59862;47.732;7.346;2023-10-13T04:36:12;98042.23;;;15.84;100.00
71996;BME280;59862;47.732;7.346;2023-10-13T04:38:58;98039.65;;;15.80;100.00
71996;BME280;59862;47.732;7.346;2023-10-13T04:41:40;98036.13;;;15.73;100.00
71996;BME280;59862;47.732;7.346;2023-10-13T04:44:14;98038.42;;;15.76;100.00
71996;BME280;59862;47.732;7.346;2023-10-13T04:46:59;98039.30;;;15.85;100.00
71996;BME280;59862;47.732;7.346;2023-10-13T04:49:33;98039.39;;;15.88;100.00
71996;BME280;59862;47.732;7.346;2023-10-13T04:52:11;98042.91;;;15.95;100.00
71996;BME280;59862;47.732;7.346;2023-10-13T04:54:42;98042.67;;;15.97;100.00
71996;BME280;59862;47.732;7.346;2023-10-13T04:57:20;98039.68;;;15.96;100.00
71996;BME280;59862;47.732;7.346;2023-10-13T05:00:06;98041.55;;;15.95;100.00
71996;BME280;59862;47.732;7.346;2023-10-13T05:02:40;98035.34;;;16.26;100.00
71996;BME280;59862;47.732;7.346;2023-10-13T05:05:12;98033.89;;;16.23;100.00
71996;BME280;59862;47.732;7.346;2023-10-13T05:07:48;98038.56;;;16.25;100.00
71996;BME280;59862;47.732;7.346;2023-10-13T05:10:35;98033.41;;;16.17;100.00
71996;BME280;59862;47.732;7.346;2023-10-13T05:13:21;98034.41;;;16.23;100.00
71996;BME280;59862;47.732;7.346;2023-10-13T05:16:07;98033.05;;;16.23;100.00
71996;BME280;59862;47.732;7.346;2023-10-13T05:18:52;98027.86;;;16.21;100.00
71996;BME280;59862;47.732;7.346;2023-10-13T05:21:38;98029.69;;;16.12;100.00
71996;BME280;59862;47.732;7.346;2023-10-13T05:24:23;98027.20;;;16.10;100.00
71996;BME280;59862;47.732;7.346;2023-10-13T05:27:08;98027.30;;;16.13;100.00
71996;BME280;59862;47.732;7.346;2023-10-13T05:29:54;98024.36;;;16.14;100.00
71996;BME280;59862;47.732;7.346;2023-10-13T05:32:40;98029.03;;;16.16;100.00
71996;BME280;59862;47.732;7.346;2023-10-13T05:35:25;98029.95;;;16.04;100.00
71996;BME280;59862;47.732;7.346;2023-10-13T05:38:11;98031.88;;;16.12;100.00
71996;BME280;59862;47.732;7.346;2023-10-13T05:40:58;98043.13;;;16.09;100.00
71996;BME280;59862;47.732;7.346;2023-10-13T05:43:44;98037.64;;;16.07;100.00
71996;BME280;59862;47.732;7.346;2023-10-13T05:46:30;98037.13;;;16.01;100.00
71996;BME280;59862;47.732;7.346;2023-10-13T05:49:08;98038.62;;;15.97;100.00
71996;BME280;59862;47.732;7.346;2023-10-13T05:51:38;98041.13;;;15.98;100.00
71996;BME280;59862;47.732;7.346;2023-10-13T05:54:11;98045.35;;;16.03;100.00
71996;BME280;59862;47.732;7.346;2023-10-13T05:56:48;98048.05;;;16.03;100.00
71996;BME280;59862;47.732;7.346;2023-10-13T05:59:35;98042.00;;;16.08;100.00
71996;BME280;59862;47.732;7.346;2023-10-13T06:02:22;98041.48;;;16.08;100.00
71996;BME280;59862;47.732;7.346;2023-10-13T06:05:12;98043.58;;;16.06;100.00
71996;BME280;59862;47.732;7.346;2023-10-13T06:07:58;98044.70;;;16.08;100.00
71996;BME280;59862;47.732;7.346;2023-10-13T06:10:48;98043.02;;;16.13;100.00
71996;BME280;59862;47.732;7.346;2023-10-13T06:13:33;98040.61;;;16.14;100.00
71996;BME280;59862;47.732;7.346;2023-10-13T06:16:19;98044.44;;;16.16;100.00
71996;BME280;59862;47.732;7.346;2023-10-13T06:19:04;98043.37;;;16.23;100.00
71996;BME280;59862;47.732;7.346;2023-10-13T06:21:49;98045.23;;;16.23;100.00
71996;BME280;59862;47.732;7.346;2023-10-13T06:24:34;98040.34;;;16.22;100.00
71996;BME280;59862;47.732;7.346;2023-10-13T06:27:19;98043.23;;;16.27;100.00
71996;BME280;59862;47.732;7.346;2023-10-13T06:30:05;98041.00;;;16.33;100.00
71996;BME280;59862;47.732;7.346;2023-10-13T06:32:33;98042.53;;;16.38;100.00
71996;BME280;59862;47.732;7.346;2023-10-13T06:35:00;98043.56;;;16.37;100.00
71996;BME280;59862;47.732;7.346;2023-10-13T06:37:29;98041.50;;;16.39;100.00
71996;BME280;59862;47.732;7.346;2023-10-13T06:39:59;98052.06;;;16.47;100.00
71996;BME280;59862;47.732;7.346;2023-10-13T06:42:29;98049.63;;;16.55;100.00
71996;BME280;59862;47.732;7.346;2023-10-13T06:44:58;98049.28;;;16.60;100.00
71996;BME280;59862;47.732;7.346;2023-10-13T06:47:27;98048.13;;;16.59;100.00
71996;BME280;59862;47.732;7.346;2023-10-13T06:49:54;98050.13;;;16.70;100.00
71996;BME280;59862;47.732;7.346;2023-10-13T06:52:23;98054.46;;;16.78;100.00
71996;BME280;59862;47.732;7.346;2023-10-13T06:54:53;98051.17;;;16.85;100.00
71996;BME280;59862;47.732;7.346;2023-10-13T06:57:21;98054.55;;;16.89;100.00
71996;BME280;59862;47.732;7.346;2023-10-13T06:59:49;98056.54;;;17.00;100.00
71996;BME280;59862;47.732;7.346;2023-10-13T07:02:18;98050.36;;;17.02;100.00
71996;BME280;59862;47.732;7.346;2023-10-13T07:04:49;98061.17;;;17.18;100.00
71996;BME280;59862;47.732;7.346;2023-10-13T07:07:18;98058.19;;;17.26;100.00
71996;BME280;59862;47.732;7.346;2023-10-13T07:09:47;98058.49;;;17.36;100.00
71996;BME280;59862;47.732;7.346;2023-10-13T07:12:24;98066.92;;;17.46;100.00
71996;BME280;59862;47.732;7.346;2023-10-13T07:14:56;98068.09;;;17.57;100.00
71996;BME280;59862;47.732;7.346;2023-10-13T07:17:32;98062.98;;;17.67;100.00
71996;BME280;59862;47.732;7.346;2023-10-13T07:20:01;98063.51;;;17.75;100.00
71996;BME280;59862;47.732;7.346;2023-10-13T07:22:45;98066.34;;;17.80;100.00
71996;BME280;59862;47.732;7.346;2023-10-13T07:25:25;98068.90;;;17.93;100.00
71996;BME280;59862;47.732;7.346;2023-10-13T07:27:54;98065.41;;;18.04;100.00
71996;BME280;59862;47.732;7.346;2023-10-13T07:30:23;98070.66;;;18.27;100.00
71996;BME280;59862;47.732;7.346;2023-10-13T07:32:52;98066.16;;;18.41;100.00
71996;BME280;59862;47.732;7.346;2023-10-13T07:35:21;98065.33;;;18.50;99.84
71996;BME280;59862;47.732;7.346;2023-10-13T07:37:53;98061.19;;;18.68;99.22
71996;BME280;59862;47.732;7.346;2023-10-13T07:40:22;98063.45;;;18.71;99.53
71996;BME280;59862;47.732;7.346;2023-10-13T07:42:55;98062.30;;;18.90;98.34
71996;BME280;59862;47.732;7.346;2023-10-13T07:45:31;98065.66;;;19.06;96.98
71996;BME280;59862;47.732;7.346;2023-10-13T07:48:09;98065.03;;;19.13;97.33
71996;BME280;59862;47.732;7.346;2023-10-13T07:50:47;98064.24;;;19.36;94.91
71996;BME280;59862;47.732;7.346;2023-10-13T07:53:15;98056.30;;;19.46;92.79
71996;BME280;59862;47.732;7.346;2023-10-13T07:55:47;98065.96;;;19.77;93.55
71996;BME280;59862;47.732;7.346;2023-10-13T07:58:15;98061.88;;;19.91;89.98
71996;BME280;59862;47.732;7.346;2023-10-13T08:00:43;98057.83;;;20.05;90.89
71996;BME280;59862;47.732;7.346;2023-10-13T08:03:13;98058.33;;;20.16;89.19
71996;BME280;59862;47.732;7.346;2023-10-13T08:05:54;98056.34;;;20.25;86.81
71996;BME280;59862;47.732;7.346;2023-10-13T08:08:33;98063.50;;;20.43;89.07
71996;BME280;59862;47.732;7.346;2023-10-13T08:11:13;98056.38;;;20.70;85.01
71996;BME280;59862;47.732;7.346;2023-10-13T08:13:56;98053.55;;;20.65;81.56
71996;BME280;59862;47.732;7.346;2023-10-13T08:16:30;98056.23;;;21.10;82.39
71996;BME280;59862;47.732;7.346;2023-10-13T08:19:17;98055.27;;;21.19;76.62
71996;BME280;59862;47.732;7.346;2023-10-13T08:21:46;98054.79;;;21.22;76.31
71996;BME280;59862;47.732;7.346;2023-10-13T08:24:21;98058.67;;;21.64;76.67
71996;BME280;59862;47.732;7.346;2023-10-13T08:26:53;98057.25;;;21.59;74.40
71996;BME280;59862;47.732;7.346;2023-10-13T08:29:25;98059.28;;;22.09;72.33
71996;BME280;59862;47.732;7.346;2023-10-13T08:31:57;98061.69;;;22.51;65.58
71996;BME280;59862;47.732;7.346;2023-10-13T08:34:46;98053.36;;;22.66;67.61
71996;BME280;59862;47.732;7.346;2023-10-13T08:37:15;98052.97;;;22.81;63.07
71996;BME280;59862;47.732;7.346;2023-10-13T08:39:55;98059.39;;;22.68;63.38
71996;BME280;59862;47.732;7.346;2023-10-13T08:42:38;98053.31;;;22.12;64.33
71996;BME280;59862;47.732;7.346;2023-10-13T08:45:12;98054.66;;;22.34;66.67
71996;BME280;59862;47.732;7.346;2023-10-13T08:47:58;98049.91;;;22.51;64.27
71996;BME280;59862;47.732;7.346;2023-10-13T08:50:44;98057.45;;;23.66;57.98
71996;BME280;59862;47.732;7.346;2023-10-13T08:53:23;98053.94;;;24.35;51.08
71996;BME280;59862;47.732;7.346;2023-10-13T08:56:03;98057.35;;;24.74;50.56
71996;BME280;59862;47.732;7.346;2023-10-13T08:58:39;98052.43;;;25.09;48.34
71996;BME280;59862;47.732;7.346;2023-10-13T09:01:35;98059.29;;;25.24;45.99
71996;BME280;59862;47.732;7.346;2023-10-13T09:04:12;98053.23;;;25.37;44.18
71996;BME280;59862;47.732;7.346;2023-10-13T09:06:54;98051.88;;;25.07;45.30
71996;BME280;59862;47.732;7.346;2023-10-13T09:09:29;98046.91;;;25.37;44.13
71996;BME280;59862;47.732;7.346;2023-10-13T09:12:24;98053.95;;;25.88;43.69
71996;BME280;59862;47.732;7.346;2023-10-13T09:14:55;98055.15;;;26.39;43.01
71996;BME280;59862;47.732;7.346;2023-10-13T09:17:26;98054.50;;;26.57;40.06
71996;BME280;59862;47.732;7.346;2023-10-13T09:20:08;98045.45;;;26.92;41.29
71996;BME280;59862;47.732;7.346;2023-10-13T09:22:54;98048.61;;;26.78;39.58
71996;BME280;59862;47.732;7.346;2023-10-13T09:30:34;98031.49;;;27.18;37.92
71996;BME280;59862;47.732;7.346;2023-10-13T09:33:02;98029.77;;;28.26;37.09
71996;BME280;59862;47.732;7.346;2023-10-13T09:35:32;98038.15;;;27.95;36.56
71996;BME280;59862;47.732;7.346;2023-10-13T09:38:01;98042.54;;;28.81;35.24
71996;BME280;59862;47.732;7.346;2023-10-13T09:40:29;98034.79;;;29.17;31.59
71996;BME280;59862;47.732;7.346;2023-10-13T09:43:02;98035.96;;;28.61;30.51
71996;BME280;59862;47.732;7.346;2023-10-13T09:45:35;98027.86;;;28.45;31.73
71996;BME280;59862;47.732;7.346;2023-10-13T09:48:12;98025.82;;;28.72;30.39
71996;BME280;59862;47.732;7.346;2023-10-13T09:50:46;98022.70;;;29.11;30.79
71996;BME280;59862;47.732;7.346;2023-10-13T09:53:15;98023.45;;;29.19;29.37
71996;BME280;59862;47.732;7.346;2023-10-13T09:55:55;98014.84;;;29.37;28.24
71996;BME280;59862;47.732;7.346;2023-10-13T09:58:18;98011.55;;;29.64;29.22
71996;BME280;59862;47.732;7.346;2023-10-13T10:00:53;98010.39;;;29.22;28.13
71996;BME280;59862;47.732;7.346;2023-10-13T10:03:25;98004.55;;;29.40;28.58
71996;BME280;59862;47.732;7.346;2023-10-13T10:06:03;98007.17;;;29.61;28.45
71996;BME280;59862;47.732;7.346;2023-10-13T10:08:35;98003.72;;;30.61;27.36
71996;BME280;59862;47.732;7.346;2023-10-13T10:14:15;97999.33;;;30.36;27.37
71996;BME280;59862;47.732;7.346;2023-10-13T10:17:04;98001.48;;;30.86;28.14
71996;BME280;59862;47.732;7.346;2023-10-13T10:19:08;97992.09;;;31.90;26.90
71996;BME280;59862;47.732;7.346;2023-10-13T10:21:37;97990.67;;;32.74;26.84
71996;BME280;59862;47.732;7.346;2023-10-13T10:24:15;97997.30;;;32.31;25.99
71996;BME280;59862;47.732;7.346;2023-10-13T10:26:52;97982.13;;;32.97;25.66
71996;BME280;59862;47.732;7.346;2023-10-13T10:29:20;97983.48;;;32.28;25.55
71996;BME280;59862;47.732;7.346;2023-10-13T10:31:48;97979.19;;;33.19;26.43
71996;BME280;59862;47.732;7.346;2023-10-13T10:34:18;97977.53;;;33.67;25.26
71996;BME280;59862;47.732;7.346;2023-10-13T10:36:47;97974.06;;;32.80;25.81
71996;BME280;59862;47.732;7.346;2023-10-13T10:39:17;97972.73;;;33.61;26.08
71996;BME280;59862;47.732;7.346;2023-10-13T10:41:44;97977.20;;;34.20;24.68
71996;BME280;59862;47.732;7.346;2023-10-13T10:44:18;97968.15;;;34.38;24.60
71996;BME280;59862;47.732;7.346;2023-10-13T10:46:53;97969.35;;;34.28;24.48
71996;BME280;59862;47.732;7.346;2023-10-13T10:49:26;97963.22;;;33.77;25.77
71996;BME280;59862;47.732;7.346;2023-10-13T10:52:02;97963.98;;;33.48;24.81
71996;BME280;59862;47.732;7.346;2023-10-13T10:54:32;97955.84;;;34.04;25.35
71996;BME280;59862;47.732;7.346;2023-10-13T10:57:00;97952.86;;;33.48;24.70
71996;BME280;59862;47.732;7.346;2023-10-13T10:59:39;97952.29;;;33.40;25.50
71996;BME280;59862;47.732;7.346;2023-10-13T11:02:08;97943.34;;;33.49;25.34
71996;BME280;59862;47.732;7.346;2023-10-13T11:04:36;97944.42;;;33.19;25.85
71996;BME280;59862;47.732;7.346;2023-10-13T11:07:22;97938.74;;;32.89;26.22
71996;BME280;59862;47.732;7.346;2023-10-13T11:09:50;97930.91;;;32.74;26.87
71996;BME280;59862;47.732;7.346;2023-10-13T11:12:20;97931.37;;;33.34;25.81
71996;BME280;59862;47.732;7.346;2023-10-13T11:15:08;97929.98;;;33.34;25.36
71996;BME280;59862;47.732;7.346;2023-10-13T11:17:47;97919.64;;;33.20;25.98
71996;BME280;59862;47.732;7.346;2023-10-13T11:20:24;97910.58;;;32.14;27.18
71996;BME280;59862;47.732;7.346;2023-10-13T11:23:10;97907.94;;;30.80;28.00
71996;BME280;59862;47.732;7.346;2023-10-13T11:25:32;97893.58;;;30.67;29.44
71996;BME280;59862;47.732;7.346;2023-10-13T11:28:17;97897.33;;;30.27;29.50
71996;BME280;59862;47.732;7.346;2023-10-13T11:30:47;97890.33;;;28.96;30.80
71996;BME280;59862;47.732;7.346;2023-10-13T11:33:19;97884.30;;;28.45;30.71
71996;BME280;59862;47.732;7.346;2023-10-13T11:35:48;97879.67;;;28.06;32.58
71996;BME280;59862;47.732;7.346;2023-10-13T11:38:23;97869.05;;;27.97;33.08
71996;BME280;59862;47.732;7.346;2023-10-13T11:40:57;97862.66;;;27.97;32.65
71996;BME280;59862;47.732;7.346;2023-10-13T11:43:35;97856.64;;;28.32;33.44
71996;BME280;59862;47.732;7.346;2023-10-13T11:46:11;97855.31;;;28.45;34.22
71996;BME280;59862;47.732;7.346;2023-10-13T11:48:42;97845.50;;;28.21;33.58
71996;BME280;59862;47.732;7.346;2023-10-13T11:51:12;97844.45;;;27.98;33.76
71996;BME280;59862;47.732;7.346;2023-10-13T11:53:53;97841.16;;;28.17;33.81
71996;BME280;59862;47.732;7.346;2023-10-13T11:56:22;97838.39;;;28.17;33.36
71996;BME280;59862;47.732;7.346;2023-10-13T11:58:51;97834.04;;;28.30;33.66
71996;BME280;59862;47.732;7.346;2023-10-13T12:01:19;97829.52;;;28.36;33.84
71996;BME280;59862;47.732;7.346;2023-10-13T12:03:50;97835.23;;;28.59;33.63
71996;BME280;59862;47.732;7.346;2023-10-13T12:06:36;97827.44;;;28.77;33.12
71996;BME280;59862;47.732;7.346;2023-10-13T12:09:07;97827.48;;;29.04;32.56
71996;BME280;59862;47.732;7.346;2023-10-13T12:11:49;97819.42;;;29.05;32.82
71996;BME280;59862;47.732;7.346;2023-10-13T12:14:19;97818.42;;;29.14;32.05
71996;BME280;59862;47.732;7.346;2023-10-13T12:16:48;97810.09;;;30.05;31.65
71996;BME280;59862;47.732;7.346;2023-10-13T12:19:24;97800.56;;;30.44;31.65
71996;BME280;59862;47.732;7.346;2023-10-13T12:21:56;97802.34;;;31.21;31.26
71996;BME280;59862;47.732;7.346;2023-10-13T12:24:26;97797.66;;;31.10;30.63
71996;BME280;59862;47.732;7.346;2023-10-13T12:27:05;97796.13;;;31.72;29.42
71996;BME280;59862;47.732;7.346;2023-10-13T12:29:53;97792.39;;;32.28;28.91
71996;BME280;59862;47.732;7.346;2023-10-13T12:32:23;97799.19;;;33.57;28.10
71996;BME280;59862;47.732;7.346;2023-10-13T12:34:52;97788.17;;;34.70;26.58
71996;BME280;59862;47.732;7.346;2023-10-13T12:37:31;97785.77;;;36.35;25.66
71996;BME280;59862;47.732;7.346;2023-10-13T12:40:19;97793.84;;;37.17;23.67
71996;BME280;59862;47.732;7.346;2023-10-13T12:43:05;97787.66;;;36.80;23.04
71996;BME280;59862;47.732;7.346;2023-10-13T12:45:51;97779.72;;;36.82;23.04
71996;BME280;59862;47.732;7.346;2023-10-13T12:48:37;97765.91;;;36.52;23.29
71996;BME280;59862;47.732;7.346;2023-10-13T12:51:24;97771.06;;;36.87;23.23
71996;BME280;59862;47.732;7.346;2023-10-13T12:53:57;97765.47;;;36.87;23.13
71996;BME280;59862;47.732;7.346;2023-10-13T12:56:42;97771.53;;;37.52;22.36
71996;BME280;59862;47.732;7.346;2023-10-13T12:59:10;97758.38;;;37.71;22.63
71996;BME280;59862;47.732;7.346;2023-10-13T13:01:41;97745.32;;;37.35;22.76
71996;BME280;59862;47.732;7.346;2023-10-13T13:04:10;97739.84;;;38.21;21.68
71996;BME280;59862;47.732;7.346;2023-10-13T13:06:48;97744.39;;;38.67;20.97
71996;BME280;59862;47.732;7.346;2023-10-13T13:09:16;97735.17;;;38.25;21.71
71996;BME280;59862;47.732;7.346;2023-10-13T13:11:45;97735.44;;;38.20;21.90
71996;BME280;59862;47.732;7.346;2023-10-13T13:14:14;97732.98;;;37.99;21.36
71996;BME280;59862;47.732;7.346;2023-10-13T13:16:42;97727.98;;;38.08;21.71
71996;BME280;59862;47.732;7.346;2023-10-13T13:19:11;97725.39;;;39.38;20.75
71996;BME280;59862;47.732;7.346;2023-10-13T13:21:40;97716.11;;;39.21;20.62
71996;BME280;59862;47.732;7.346;2023-10-13T13:24:09;97714.03;;;38.40;21.98
71996;BME280;59862;47.732;7.346;2023-10-13T13:26:38;97712.55;;;39.37;20.49
71996;BME280;59862;47.732;7.346;2023-10-13T13:29:07;97710.59;;;39.80;19.99
71996;BME280;59862;47.732;7.346;2023-10-13T13:31:37;97711.50;;;39.75;19.69
71996;BME280;59862;47.732;7.346;2023-10-13T13:34:11;97708.11;;;39.75;19.88
71996;BME280;59862;47.732;7.346;2023-10-13T13:36:40;97700.40;;;39.85;19.65
71996;BME280;59862;47.732;7.346;2023-10-13T13:39:15;97689.06;;;40.25;18.27
71996;BME280;59862;47.732;7.346;2023-10-13T13:41:44;97689.06;;;40.25;18.27